createdAt,value
2018-06-24T00:00:00.100Z,100535.91
2018-06-24T00:02:28.870Z,100536.02
2018-06-24T00:04:57.698Z,100529.94
2018-06-24T00:07:27.265Z,100531.07
2018-06-24T00:09:56.059Z,100536.85
2018-06-24T00:12:25.828Z,100531.56
2018-06-24T00:14:55.254Z,100527.64
2018-06-24T00:17:25.028Z,100523.20
2018-06-24T00:19:53.840Z,100530.02
2018-06-24T00:22:22.740Z,100524.75
2018-06-24T00:24:51.513Z,100529.59
2018-06-24T00:27:20.268Z,100528.77
2018-06-24T00:29:49.379Z,100525.78
2018-06-24T00:32:18.780Z,100523.81
2018-06-24T00:34:47.530Z,100528.05
2018-06-24T00:37:16.337Z,100528.77
2018-06-24T00:39:45.069Z,100528.05
2018-06-24T00:42:13.829Z,100524.27
2018-06-24T00:44:42.812Z,100529.31
2018-06-24T00:47:11.586Z,100529.83
2018-06-24T00:49:41.204Z,100525.19
2018-06-24T00:52:10.781Z,100530.24
2018-06-24T00:54:40.690Z,100535.71
2018-06-24T00:57:10.083Z,100529.72
2018-06-24T00:59:49.982Z,100533.67
2018-06-24T01:02:18.817Z,100527.38
2018-06-24T01:04:47.683Z,100541.40
2018-06-24T01:07:17.383Z,100540.98
2018-06-24T01:09:46.270Z,100534.09
2018-06-24T01:12:16.087Z,100530.17
2018-06-24T01:14:45.435Z,100534.91
2018-06-24T01:17:15.094Z,100526.17
2018-06-24T01:19:43.850Z,100528.63
2018-06-24T01:22:12.577Z,100529.55
2018-06-24T01:24:42.003Z,100530.16
2018-06-24T01:27:10.760Z,100530.45
2018-06-24T01:29:39.573Z,100530.03
2018-06-24T01:32:09.487Z,100530.44
2018-06-24T01:34:38.463Z,100530.98
2018-06-24T01:37:07.655Z,100534.38
2018-06-24T01:39:36.650Z,100542.92
2018-06-24T01:42:05.473Z,100543.75
2018-06-24T01:44:34.382Z,100545.92
2018-06-24T01:47:03.308Z,100540.25
2018-06-24T01:49:32.987Z,100547.26
2018-06-24T01:52:01.916Z,100537.88
2018-06-24T01:54:30.711Z,100540.88
2018-06-24T01:57:00.300Z,100546.23
2018-06-24T01:59:29.094Z,100547.34
2018-06-24T02:01:57.846Z,100552.50
2018-06-24T02:04:26.666Z,100546.11
2018-06-24T02:06:55.927Z,100543.54
2018-06-24T02:09:24.702Z,100544.37
2018-06-24T02:11:54.304Z,100539.83
2018-06-24T02:14:23.594Z,100529.22
2018-06-24T02:16:53.065Z,100524.36
2018-06-24T02:19:21.900Z,100525.33
2018-06-24T02:21:50.645Z,100530.17
2018-06-24T02:24:20.272Z,100525.03
2018-06-24T02:26:49.018Z,100522.42
2018-06-24T02:29:17.809Z,100528.72
2018-06-24T02:31:47.522Z,100527.69
2018-06-24T02:34:16.273Z,100525.13
2018-06-24T02:36:45.050Z,100519.03
2018-06-24T02:39:13.913Z,100520.38
2018-06-24T02:41:42.727Z,100520.80
2018-06-24T02:44:11.662Z,100517.16
2018-06-24T02:46:41.444Z,100516.55
2018-06-24T02:49:10.766Z,100525.21
2018-06-24T02:51:39.563Z,100519.44
2018-06-24T02:54:08.736Z,100519.00
2018-06-24T02:56:39.214Z,100518.27
2018-06-24T02:59:08.508Z,100514.36
2018-06-24T03:01:37.591Z,100510.95
2018-06-24T03:04:06.620Z,100520.13
2018-06-24T03:06:36.537Z,100510.02
2018-06-24T03:09:08.446Z,100513.19
2018-06-24T03:11:38.147Z,100512.57
2018-06-24T03:14:08.206Z,100514.84
2018-06-24T03:16:37.861Z,100506.95
2018-06-24T03:19:07.016Z,100515.28
2018-06-24T03:21:35.835Z,100509.40
2018-06-24T03:24:05.456Z,100508.68
2018-06-24T03:26:34.304Z,100508.41
2018-06-24T03:29:03.117Z,100509.70
2018-06-24T03:31:32.508Z,100512.91
2018-06-24T03:34:01.286Z,100508.72
2018-06-24T03:36:30.130Z,100511.16
2018-06-24T03:38:58.909Z,100520.88
2018-06-24T03:41:27.622Z,100516.48
2018-06-24T03:43:57.046Z,100516.61
2018-06-24T03:46:26.015Z,100523.28
2018-06-24T03:48:55.844Z,100524.55
2018-06-24T03:51:24.670Z,100531.36
2018-06-24T03:53:53.416Z,100527.94
2018-06-24T03:56:22.772Z,100530.86
2018-06-24T03:58:51.539Z,100528.94
2018-06-24T04:01:20.286Z,100532.37
2018-06-24T04:03:49.163Z,100532.31
2018-06-24T04:06:18.910Z,100534.63
2018-06-24T04:08:47.706Z,100533.64
2018-06-24T04:11:16.966Z,100529.03
2018-06-24T04:13:46.652Z,100527.20
2018-06-24T04:16:16.219Z,100524.45
2018-06-24T04:18:45.272Z,100532.61
2018-06-24T04:21:14.915Z,100534.08
2018-06-24T04:23:45.362Z,100530.45
2018-06-24T04:26:14.167Z,100538.14
2018-06-24T04:28:43.021Z,100540.38
2018-06-24T04:31:12.644Z,100545.83
2018-06-24T04:33:41.573Z,100544.27
2018-06-24T04:36:10.304Z,100543.08
2018-06-24T04:38:39.426Z,100547.12
2018-06-24T04:41:09.244Z,100544.27
2018-06-24T04:43:38.179Z,100545.91
2018-06-24T04:46:07.306Z,100548.24
2018-06-24T04:48:36.975Z,100557.38
2018-06-24T04:51:06.630Z,100559.25
2018-06-24T04:53:35.541Z,100556.67
2018-06-24T04:56:05.503Z,100551.14
2018-06-24T04:58:34.312Z,100553.40
2018-06-24T05:01:03.066Z,100555.05
2018-06-24T05:03:32.036Z,100556.83
2018-06-24T05:06:01.746Z,100563.05
2018-06-24T05:08:30.478Z,100569.27
2018-06-24T05:11:00.093Z,100572.03
2018-06-24T05:13:29.585Z,100575.07
2018-06-24T05:15:59.118Z,100580.06
2018-06-24T05:18:27.890Z,100577.67
2018-06-24T05:20:56.654Z,100583.89
2018-06-24T05:23:26.029Z,100583.59
2018-06-24T05:25:54.787Z,100585.95
2018-06-24T05:28:23.542Z,100587.38
2018-06-24T05:30:53.073Z,100586.43
2018-06-24T05:33:21.940Z,100592.02
2018-06-24T05:35:50.701Z,100597.78
2018-06-24T05:38:19.831Z,100595.15
2018-06-24T05:40:49.094Z,100601.44
2018-06-24T05:43:17.944Z,100602.49
2018-06-24T05:45:46.743Z,100601.14
2018-06-24T05:48:16.302Z,100600.98
2018-06-24T05:50:45.680Z,100603.80
2018-06-24T05:53:14.447Z,100604.91
2018-06-24T05:55:44.254Z,100603.80
2018-06-24T05:58:13.053Z,100602.73
2018-06-24T06:00:41.774Z,100611.36
2018-06-24T06:03:10.616Z,100612.03
2018-06-24T06:05:40.034Z,100619.55
2018-06-24T06:08:09.914Z,100616.76
2018-06-24T06:10:39.602Z,100615.22
2018-06-24T06:13:09.325Z,100615.65
2018-06-24T06:15:38.876Z,100620.53
2018-06-24T06:18:07.986Z,100618.81
2018-06-24T06:20:36.999Z,100624.89
2018-06-24T06:23:07.056Z,100616.17
2018-06-24T06:25:38.618Z,100625.20
2018-06-24T06:28:08.166Z,100622.94
2018-06-24T06:30:38.361Z,100625.16
2018-06-24T06:33:07.579Z,100620.86
2018-06-24T06:35:36.638Z,100631.53
2018-06-24T06:38:07.520Z,100620.77
2018-06-24T06:40:37.982Z,100631.37
2018-06-24T06:43:08.448Z,100627.94
2018-06-24T06:45:38.354Z,100623.91
2018-06-24T06:48:08.666Z,100625.91
2018-06-24T06:50:38.674Z,100625.01
2018-06-24T06:53:07.928Z,100622.84
2018-06-24T06:55:37.539Z,100623.22
2018-06-24T06:58:08.506Z,100623.98
2018-06-24T07:00:37.834Z,100621.88
2018-06-24T07:03:09.743Z,100624.59
2018-06-24T07:05:39.645Z,100618.66
2018-06-24T07:08:09.160Z,100616.92
2018-06-24T07:10:39.430Z,100628.34
2018-06-24T07:13:09.268Z,100617.05
2018-06-24T07:15:39.045Z,100616.09
2018-06-24T07:18:08.105Z,100618.78
2018-06-24T07:20:37.527Z,100620.92
2018-06-24T07:23:07.900Z,100613.69
2018-06-24T07:25:36.938Z,100609.78
2018-06-24T07:28:06.394Z,100603.45
2018-06-24T07:30:35.691Z,100603.74
2018-06-24T07:33:05.137Z,100602.05
2018-06-24T07:35:34.710Z,100617.67
2018-06-24T07:38:03.560Z,100613.34
2018-06-24T07:40:32.271Z,100622.41
2018-06-24T07:43:01.657Z,100618.05
2018-06-24T07:45:30.396Z,100619.47
2018-06-24T07:47:59.946Z,100619.22
2018-06-24T07:50:29.519Z,100618.08
2018-06-24T07:52:58.332Z,100624.05
2018-06-24T07:55:27.873Z,100627.33
2018-06-24T07:57:56.750Z,100630.68
2018-06-24T08:00:25.494Z,100626.89
2018-06-24T08:02:54.446Z,100640.59
2018-06-24T08:05:24.169Z,100639.41
2018-06-24T08:07:53.163Z,100636.69
2018-06-24T08:10:22.910Z,100633.23
2018-06-24T08:12:52.453Z,100636.01
2018-06-24T08:15:22.151Z,100642.31
2018-06-24T08:17:51.267Z,100636.11
2018-06-24T08:20:19.999Z,100630.06
2018-06-24T08:22:49.498Z,100625.62
2018-06-24T08:25:18.281Z,100622.94
2018-06-24T08:27:47.211Z,100620.75
2018-06-24T08:30:16.002Z,100622.98
2018-06-24T08:32:45.335Z,100630.08
2018-06-24T08:35:14.113Z,100631.18
2018-06-24T08:37:43.095Z,100637.98
2018-06-24T08:40:11.862Z,100638.52
2018-06-24T08:42:41.235Z,100635.83
2018-06-24T08:45:10.366Z,100634.41
2018-06-24T08:47:41.277Z,100621.15
2018-06-24T08:50:10.671Z,100621.95
2018-06-24T08:52:39.523Z,100632.02
2018-06-24T08:55:10.001Z,100635.66
2018-06-24T08:57:39.668Z,100629.69
2018-06-24T09:00:09.122Z,100625.64
2018-06-24T09:02:38.875Z,100624.09
2018-06-24T09:05:08.869Z,100617.07
2018-06-24T09:07:38.500Z,100620.33
2018-06-24T09:10:08.497Z,100622.83
2018-06-24T09:12:38.768Z,100621.46
2018-06-24T09:15:10.122Z,100625.59
2018-06-24T09:17:40.542Z,100622.06
2018-06-24T09:20:09.985Z,100620.70
2018-06-24T09:22:39.965Z,100622.45
2018-06-24T09:25:08.978Z,100627.42
2018-06-24T09:27:39.035Z,100629.83
2018-06-24T09:30:09.026Z,100628.74
2018-06-24T09:32:39.540Z,100626.28
2018-06-24T09:35:09.226Z,100632.64
2018-06-24T09:37:38.194Z,100635.12
2018-06-24T09:40:07.090Z,100631.09
2018-06-24T09:42:35.920Z,100629.49
2018-06-24T09:45:04.834Z,100633.61
2018-06-24T09:47:34.450Z,100628.77
2018-06-24T09:50:04.270Z,100626.89
2018-06-24T09:52:33.016Z,100624.23
2018-06-24T09:55:01.730Z,100621.81
2018-06-24T09:57:31.134Z,100621.84
2018-06-24T09:59:59.905Z,100621.33
2018-06-24T10:02:28.666Z,100623.52
2018-06-24T10:04:57.602Z,100631.95
2018-06-24T10:07:27.229Z,100621.33
2018-06-24T10:09:57.038Z,100629.25
2018-06-24T10:12:26.670Z,100633.36
2018-06-24T10:14:56.247Z,100632.81
2018-06-24T10:17:26.274Z,100632.81
2018-06-24T10:19:55.050Z,100625.75
2018-06-24T10:22:23.830Z,100627.39
2018-06-24T10:24:53.354Z,100628.19
2018-06-24T10:27:22.783Z,100630.39
2018-06-24T10:29:51.598Z,100625.70
2018-06-24T10:32:21.091Z,100626.80
2018-06-24T10:34:49.899Z,100630.89
2018-06-24T10:37:18.642Z,100624.88
2018-06-24T10:39:47.534Z,100629.53
2018-06-24T10:42:17.211Z,100627.36
2018-06-24T10:44:45.964Z,100620.55
2018-06-24T10:47:14.854Z,100616.48
2018-06-24T10:49:44.618Z,100615.38
2018-06-24T10:52:13.354Z,100615.94
2018-06-24T10:54:42.980Z,100609.66
2018-06-24T10:57:12.518Z,100606.36
2018-06-24T10:59:41.282Z,100615.37
2018-06-24T11:02:10.134Z,100612.91
2018-06-24T11:04:39.218Z,100607.70
2018-06-24T11:07:09.883Z,100601.39
2018-06-24T11:09:39.003Z,100599.20
2018-06-24T11:12:09.341Z,100601.94
2018-06-24T11:14:39.182Z,100601.11
2018-06-24T11:17:09.894Z,100601.06
2018-06-24T11:19:39.062Z,100600.52
2018-06-24T11:22:10.679Z,100599.97
2018-06-24T11:24:40.116Z,100595.27
2018-06-24T11:27:09.067Z,100596.09
2018-06-24T11:29:38.431Z,100602.38
2018-06-24T11:32:08.298Z,100599.66
2018-06-24T11:34:37.858Z,100596.31
2018-06-24T11:37:07.003Z,100602.26
2018-06-24T11:39:36.006Z,100594.88
2018-06-24T11:42:04.917Z,100591.79
2018-06-24T11:44:33.797Z,100592.44
2018-06-24T11:47:03.609Z,100597.17
2018-06-24T11:49:33.011Z,100590.48
2018-06-24T11:52:01.826Z,100595.60
2018-06-24T11:54:30.588Z,100589.53
2018-06-24T11:56:59.936Z,100590.48
2018-06-24T11:59:28.677Z,100589.86
2018-06-24T12:01:57.464Z,100583.56
2018-06-24T12:04:26.308Z,100587.52
2018-06-24T12:06:55.838Z,100584.76
2018-06-24T12:09:24.574Z,100580.63
2018-06-24T12:11:54.180Z,100593.60
2018-06-24T12:14:23.426Z,100586.76
2018-06-24T12:16:53.111Z,100578.17
2018-06-24T12:19:21.928Z,100591.48
2018-06-24T12:21:52.051Z,100594.58
2018-06-24T12:24:21.775Z,100587.48
2018-06-24T12:26:50.549Z,100579.34
2018-06-24T12:29:19.342Z,100582.95
2018-06-24T12:31:48.749Z,100577.95
2018-06-24T12:34:17.518Z,100582.39
2018-06-24T12:36:46.319Z,100588.58
2018-06-24T12:39:18.826Z,100582.17
2018-06-24T12:41:47.573Z,100584.72
2018-06-24T12:44:16.499Z,100575.48
2018-06-24T12:46:46.531Z,100577.30
2018-06-24T12:49:16.179Z,100575.28
2018-06-24T12:51:44.933Z,100580.50
2018-06-24T12:54:14.269Z,100563.81
2018-06-24T12:56:44.159Z,100564.69
2018-06-24T12:59:13.170Z,100562.72
2018-06-24T13:01:41.706Z,100565.87
2018-06-24T13:04:10.599Z,100564.92
2018-06-24T13:06:40.266Z,100572.09
2018-06-24T13:09:10.073Z,100578.76
2018-06-24T13:11:40.022Z,100577.79
2018-06-24T13:14:10.107Z,100574.06
2018-06-24T13:16:39.524Z,100570.25
2018-06-24T13:19:08.704Z,100578.22
2018-06-24T13:21:38.961Z,100571.77
2018-06-24T13:24:08.711Z,100573.19
2018-06-24T13:26:37.706Z,100577.43
2018-06-24T13:29:06.929Z,100580.38
2018-06-24T13:31:36.901Z,100569.46
2018-06-24T13:34:05.861Z,100566.58
2018-06-24T13:36:34.646Z,100565.69
2018-06-24T13:39:03.624Z,100567.66
2018-06-24T13:41:32.475Z,100568.54
2018-06-24T13:44:01.340Z,100566.16
2018-06-24T13:46:31.041Z,100558.33
2018-06-24T13:49:00.866Z,100554.55
2018-06-24T13:51:29.674Z,100559.84
2018-06-24T13:53:58.406Z,100559.83
2018-06-24T13:56:28.381Z,100555.45
2018-06-24T13:58:57.151Z,100563.16
2018-06-24T14:01:25.910Z,100560.05
2018-06-24T14:03:54.773Z,100571.39
2018-06-24T14:06:24.362Z,100575.31
2018-06-24T14:08:53.136Z,100566.84
2018-06-24T14:11:22.880Z,100564.02
2018-06-24T14:13:52.343Z,100567.57
2018-06-24T14:16:21.866Z,100563.95
2018-06-24T14:18:51.459Z,100562.67
2018-06-24T14:21:20.368Z,100563.22
2018-06-24T14:23:49.986Z,100567.66
2018-06-24T14:26:18.758Z,100567.20
2018-06-24T14:28:47.600Z,100568.52
2018-06-24T14:31:16.422Z,100569.84
2018-06-24T14:33:46.383Z,100566.87
2018-06-24T14:36:15.121Z,100565.72
2018-06-24T14:38:44.539Z,100554.95
2018-06-24T14:41:13.413Z,100550.58
2018-06-24T14:43:42.192Z,100560.56
2018-06-24T14:46:11.793Z,100555.91
2018-06-24T14:48:41.482Z,100551.45
2018-06-24T14:51:11.048Z,100552.32
2018-06-24T14:53:39.818Z,100547.08
2018-06-24T14:56:09.572Z,100546.53
2018-06-24T14:58:39.000Z,100547.92
2018-06-24T15:01:08.063Z,100550.11
2018-06-24T15:03:37.131Z,100545.87
2018-06-24T15:06:06.962Z,100547.12
2018-06-24T15:08:35.698Z,100551.36
2018-06-24T15:11:06.576Z,100551.97
2018-06-24T15:13:35.620Z,100547.45
2018-06-24T15:16:05.002Z,100551.05
2018-06-24T15:18:33.743Z,100554.92
2018-06-24T15:21:03.471Z,100559.23
2018-06-24T15:23:33.059Z,100554.59
2018-06-24T15:26:01.806Z,100557.99
2018-06-24T15:28:31.354Z,100553.99
2018-06-24T15:31:00.190Z,100555.32
2018-06-24T15:33:29.754Z,100553.24
2018-06-24T15:35:58.587Z,100550.87
2018-06-24T15:38:27.362Z,100560.42
2018-06-24T15:40:56.210Z,100561.09
2018-06-24T15:43:24.942Z,100569.69
2018-06-24T15:45:53.809Z,100569.03
2018-06-24T15:48:22.696Z,100566.23
2018-06-24T15:50:53.130Z,100569.48
2018-06-24T15:53:21.850Z,100570.11
2018-06-24T15:55:51.254Z,100565.48
2018-06-24T15:58:19.981Z,100564.95
2018-06-24T16:00:49.344Z,100563.05
2018-06-24T16:03:18.170Z,100567.94
2018-06-24T16:05:47.772Z,100566.28
2018-06-24T16:08:16.512Z,100564.47
2018-06-24T16:10:46.542Z,100558.45
2018-06-24T16:13:15.997Z,100566.85
2018-06-24T16:15:45.565Z,100559.15
2018-06-24T16:18:14.377Z,100551.41
2018-06-24T16:20:44.154Z,100552.96
2018-06-24T16:23:13.284Z,100555.42
2018-06-24T16:25:42.137Z,100557.80
2018-06-24T16:28:11.797Z,100567.80
2018-06-24T16:30:40.698Z,100564.48
2018-06-24T16:33:10.043Z,100569.97
2018-06-24T16:35:39.763Z,100571.87
2018-06-24T16:38:09.322Z,100567.44
2018-06-24T16:40:39.040Z,100566.95
2018-06-24T16:43:08.359Z,100570.05
2018-06-24T16:45:37.321Z,100565.89
2018-06-24T16:48:06.573Z,100563.09
2018-06-24T16:50:37.038Z,100563.98
2018-06-24T16:53:06.660Z,100556.00
2018-06-24T16:55:37.361Z,100549.72
2018-06-24T16:58:06.544Z,100552.97
2018-06-24T17:00:35.310Z,100552.64
2018-06-24T17:03:04.569Z,100546.25
2018-06-24T17:05:34.586Z,100542.97
2018-06-24T17:08:03.337Z,100545.60
2018-06-24T17:10:33.192Z,100552.13
2018-06-24T17:13:02.991Z,100551.91
2018-06-24T17:15:32.705Z,100554.91
2018-06-24T17:18:01.458Z,100565.20
2018-06-24T17:20:30.234Z,100566.84
2018-06-24T17:22:59.600Z,100568.62
2018-06-24T17:25:28.377Z,100567.23
2018-06-24T17:27:57.771Z,100562.61
2018-06-24T17:30:26.568Z,100564.41
2018-06-24T17:32:56.234Z,100568.84
2018-06-24T17:35:24.983Z,100562.84
2018-06-24T17:37:53.771Z,100559.84
2018-06-24T17:40:23.131Z,100561.81
2018-06-24T17:42:52.014Z,100557.58
2018-06-24T17:45:20.790Z,100561.55
2018-06-24T17:47:49.621Z,100558.09
2018-06-24T17:50:19.328Z,100560.07
2018-06-24T17:52:48.171Z,100565.02
2018-06-24T17:55:18.167Z,100559.67
2018-06-24T17:57:46.975Z,100561.95
2018-06-24T18:00:15.758Z,100566.33
2018-06-24T18:02:44.577Z,100567.66
2018-06-24T18:05:14.298Z,100571.53
2018-06-24T18:07:43.807Z,100568.77
2018-06-24T18:10:13.323Z,100573.53
2018-06-24T18:12:42.786Z,100577.34
2018-06-24T18:15:12.332Z,100573.56
2018-06-24T18:17:41.729Z,100583.34
2018-06-24T18:20:10.440Z,100583.38
2018-06-24T18:22:40.007Z,100586.82
2018-06-24T18:25:09.422Z,100579.92
2018-06-24T18:27:39.208Z,100582.31
2018-06-24T18:30:08.876Z,100585.27
2018-06-24T18:32:38.792Z,100578.78
2018-06-24T18:35:07.790Z,100586.18
2018-06-24T18:37:36.857Z,100584.87
2018-06-24T18:40:05.708Z,100584.19
2018-06-24T18:42:34.470Z,100579.46
2018-06-24T18:45:03.442Z,100585.66
2018-06-24T18:47:32.728Z,100589.00
2018-06-24T18:50:02.176Z,100587.27
2018-06-24T18:52:30.942Z,100595.55
2018-06-24T18:54:59.831Z,100593.80
2018-06-24T18:57:29.899Z,100595.59
2018-06-24T18:59:58.649Z,100592.33
2018-06-24T19:02:27.412Z,100597.73
2018-06-24T19:04:57.224Z,100600.66
2018-06-24T19:07:26.925Z,100600.23
2018-06-24T19:09:56.424Z,100604.66
2018-06-24T19:12:26.028Z,100609.06
2018-06-24T19:14:55.702Z,100609.93
2018-06-24T19:17:25.126Z,100611.84
2018-06-24T19:19:53.951Z,100614.54
2018-06-24T19:22:23.273Z,100618.32
2018-06-24T19:24:52.995Z,100618.83
2018-06-24T19:27:21.599Z,100616.90
2018-06-24T19:29:51.038Z,100623.69
2018-06-24T19:32:20.600Z,100624.19
2018-06-24T19:34:49.380Z,100624.91
2018-06-24T19:37:18.174Z,100627.03
2018-06-24T19:39:46.974Z,100632.41
2018-06-24T19:42:15.783Z,100632.62
2018-06-24T19:44:44.639Z,100630.38
2018-06-24T19:47:13.504Z,100625.69
2018-06-24T19:49:43.451Z,100627.72
2018-06-24T19:52:14.455Z,100630.88
2018-06-24T19:54:43.274Z,100633.50
2018-06-24T19:57:12.916Z,100632.28
2018-06-24T19:59:41.633Z,100631.09
2018-06-24T20:02:11.955Z,100634.22
2018-06-24T20:04:41.460Z,100638.44
2018-06-24T20:07:11.523Z,100643.14
2018-06-24T20:09:41.377Z,100637.28
2018-06-24T20:12:11.381Z,100636.05
2018-06-24T20:14:41.002Z,100633.72
2018-06-24T20:17:10.492Z,100634.91
2018-06-24T20:19:39.485Z,100628.78
2018-06-24T20:22:09.299Z,100633.50
2018-06-24T20:24:39.364Z,100636.00
2018-06-24T20:27:09.471Z,100636.87
2018-06-24T20:29:39.646Z,100632.08
2018-06-24T20:32:09.382Z,100634.34
2018-06-24T20:34:39.189Z,100636.31
2018-06-24T20:37:08.377Z,100633.67
2018-06-24T20:39:37.578Z,100640.53
2018-06-24T20:42:07.140Z,100628.90
2018-06-24T20:44:36.200Z,100629.22
2018-06-24T20:47:05.316Z,100636.28
2018-06-24T20:49:34.860Z,100633.09
2018-06-24T20:52:03.639Z,100637.42
2018-06-24T20:54:33.175Z,100645.72
2018-06-24T20:57:03.091Z,100643.92
2018-06-24T20:59:32.653Z,100641.08
2018-06-24T21:02:02.359Z,100637.95
2018-06-24T21:04:31.153Z,100638.34
2018-06-24T21:07:00.699Z,100637.56
2018-06-24T21:09:29.473Z,100649.86
2018-06-24T21:11:59.086Z,100648.91
2018-06-24T21:14:28.613Z,100650.89
2018-06-24T21:16:58.174Z,100652.34
2018-06-24T21:19:26.894Z,100646.48
2018-06-24T21:21:56.718Z,100648.45
2018-06-24T21:24:30.545Z,100648.59
2018-06-24T21:26:59.303Z,100651.38
2018-06-24T21:29:28.050Z,100660.13
2018-06-24T21:31:58.115Z,100659.95
2018-06-24T21:34:26.941Z,100653.29
2018-06-24T21:36:56.128Z,100660.91
2018-06-24T21:39:25.177Z,100657.69
2018-06-24T21:41:54.023Z,100658.03
2018-06-24T21:44:22.927Z,100647.88
2018-06-24T21:46:52.091Z,100652.00
2018-06-24T21:49:22.065Z,100651.28
2018-06-24T21:51:51.410Z,100654.55
2018-06-24T21:54:20.155Z,100658.91
2018-06-24T21:56:49.919Z,100658.08
2018-06-24T21:59:19.514Z,100655.11
2018-06-24T22:01:48.286Z,100658.94
2018-06-24T22:04:17.105Z,100654.66
2018-06-24T22:06:46.598Z,100653.92
2018-06-24T22:09:15.347Z,100647.47
2018-06-24T22:11:45.232Z,100653.08
2018-06-24T22:14:14.687Z,100660.64
2018-06-24T22:16:44.246Z,100659.04
2018-06-24T22:19:13.062Z,100653.73
2018-06-24T22:21:42.789Z,100652.44
2018-06-24T22:24:12.190Z,100656.55
2018-06-24T22:26:41.066Z,100652.12
2018-06-24T22:29:10.924Z,100646.78
2018-06-24T22:31:40.824Z,100647.64
2018-06-24T22:34:10.421Z,100645.08
2018-06-24T22:36:39.523Z,100640.06
2018-06-24T22:39:11.190Z,100636.38
2018-06-24T22:41:40.380Z,100631.67
2018-06-24T22:44:09.595Z,100641.21
2018-06-24T22:46:38.698Z,100635.04
2018-06-24T22:49:08.837Z,100633.23
2018-06-24T22:51:37.909Z,100630.58
2018-06-24T22:54:06.895Z,100632.08
2018-06-24T22:56:36.606Z,100635.72
2018-06-24T22:59:17.174Z,100633.87
2018-06-24T23:01:46.055Z,100638.27
2018-06-24T23:04:14.859Z,100636.53
2018-06-24T23:06:44.457Z,100631.94
2018-06-24T23:09:13.301Z,100631.06
2018-06-24T23:11:42.966Z,100632.38
2018-06-24T23:14:12.974Z,100635.95
2018-06-24T23:16:42.964Z,100632.31
2018-06-24T23:19:11.790Z,100637.31
2018-06-24T23:21:41.192Z,100639.72
2018-06-24T23:24:11.053Z,100642.72
2018-06-24T23:26:40.139Z,100639.21
2018-06-24T23:29:09.236Z,100642.93
2018-06-24T23:31:40.333Z,100647.58
2018-06-24T23:34:10.019Z,100645.82
2018-06-24T23:36:38.985Z,100640.14
2018-06-24T23:39:09.469Z,100644.37
2018-06-24T23:41:38.682Z,100640.45
2018-06-24T23:44:08.056Z,100646.88
2018-06-24T23:46:37.056Z,100647.12
2018-06-24T23:49:07.638Z,100646.59
2018-06-24T23:51:36.478Z,100653.09
2018-06-24T23:54:07.003Z,100649.51
2018-06-24T23:56:36.808Z,100654.77
2018-06-24T23:59:05.961Z,100648.58
